Time;durP1;ratioP1;P1;durP2;ratioP2;P2;SDS_P1;SDS_P2;PMS_P1;PMS_P2;Temp;Humidity;BMP_temperature;BMP_pressure;BME280_temperature;BME280_humidity;BME280_pressure;Samples;Min_cycle;Max_cycle;Signal;HPM_P1;HPM_P2
2023/08/03 04:00:40;;;;;;;7.32;2.72;;;23.30;99.90;;;;;;6219372;28;87396;-68
2023/08/03 04:03:42;;;;;;;5.15;3.10;;;23.30;99.90;;;;;;6230955;28;89865;-68
2023/08/03 04:06:44;;;;;;;4.40;2.47;;;23.30;99.90;;;;;;6231212;28;88993;-68
2023/08/03 04:09:46;;;;;;;3.97;2.40;;;23.30;99.90;;;;;;6221500;28;89024;-68
2023/08/03 04:12:48;;;;;;;3.28;2.10;;;23.30;99.90;;;;;;6227753;28;89336;-68
2023/08/03 04:15:51;;;;;;;3.20;2.08;;;23.30;99.90;;;;;;6220748;28;89443;-68
2023/08/03 04:18:53;;;;;;;3.15;2.45;;;23.30;99.90;;;;;;6226922;28;89284;-68
2023/08/03 04:21:55;;;;;;;3.72;2.67;;;23.30;99.90;;;;;;6230924;28;89137;-68
2023/08/03 04:24:57;;;;;;;3.75;2.20;;;23.30;99.90;;;;;;6247033;28;88390;-68
2023/08/03 04:27:59;;;;;;;4.38;2.20;;;23.30;99.90;;;;;;6231681;28;89002;-68
2023/08/03 04:31:03;;;;;;;4.28;2.55;;;23.30;99.90;;;;;;6233445;28;89083;-68
2023/08/03 04:34:05;;;;;;;3.50;2.38;;;23.30;99.90;;;;;;6221359;28;90084;-68
2023/08/03 04:37:07;;;;;;;5.55;2.55;;;23.30;99.90;;;;;;6230842;28;89129;-68
2023/08/03 04:40:09;;;;;;;4.88;2.83;;;23.30;99.90;;;;;;6232799;28;88831;-68
2023/08/03 04:43:11;;;;;;;3.88;2.30;;;23.30;99.90;;;;;;6231803;28;89127;-68
2023/08/03 04:46:14;;;;;;;4.18;2.47;;;23.30;99.90;;;;;;6235835;28;89563;-68
2023/08/03 04:49:16;;;;;;;6.90;3.13;;;23.30;99.90;;;;;;6222623;28;89096;-68
2023/08/03 04:52:18;;;;;;;6.07;3.13;;;23.30;99.90;;;;;;6231756;28;89058;-68
2023/08/03 04:55:20;;;;;;;3.72;2.38;;;23.30;99.90;;;;;;6230126;28;88089;-67
2023/08/03 04:58:22;;;;;;;5.68;3.10;;;23.30;99.90;;;;;;6223955;28;89074;-70
2023/08/03 05:01:26;;;;;;;5.25;2.53;;;23.30;99.90;;;;;;6220224;28;89101;-68
2023/08/03 05:04:28;;;;;;;3.83;2.20;;;23.30;99.90;;;;;;6226555;28;88993;-68
2023/08/03 05:07:30;;;;;;;3.63;2.30;;;23.30;99.90;;;;;;6228752;28;89075;-68
2023/08/03 05:10:32;;;;;;;5.28;2.40;;;23.30;99.90;;;;;;6226266;28;89131;-68
2023/08/03 05:13:34;;;;;;;5.72;2.55;;;23.40;99.90;;;;;;6225218;28;89216;-68
2023/08/03 05:16:37;;;;;;;4.65;2.58;;;23.40;99.90;;;;;;6213151;28;89175;-68
2023/08/03 05:19:39;;;;;;;4.25;2.35;;;23.40;99.90;;;;;;6229828;28;89648;-68
2023/08/03 05:22:41;;;;;;;6.18;3.53;;;23.40;99.90;;;;;;6229602;28;89399;-68
2023/08/03 05:25:43;;;;;;;8.68;4.10;;;23.40;99.90;;;;;;6220454;28;88037;-68
2023/08/03 05:28:45;;;;;;;14.73;4.72;;;23.40;99.90;;;;;;6217115;28;89058;-68
2023/08/03 05:31:50;;;;;;;8.55;4.68;;;23.30;99.90;;;;;;6223861;28;89027;-68
2023/08/03 05:34:52;;;;;;;9.15;4.65;;;23.40;99.90;;;;;;6225172;28;89924;-68
2023/08/03 05:37:54;;;;;;;9.88;5.00;;;23.40;99.90;;;;;;6227193;28;88963;-68
2023/08/03 05:40:56;;;;;;;8.40;4.53;;;23.30;99.90;;;;;;6221721;28;89224;-68
2023/08/03 05:43:58;;;;;;;7.15;4.18;;;23.30;99.90;;;;;;6228454;28;87832;-68
2023/08/03 05:47:02;;;;;;;8.38;4.40;;;23.40;99.90;;;;;;6228687;28;89046;-68
2023/08/03 05:50:09;;;;;;;10.30;4.50;;;23.40;99.90;;;;;;6228346;28;88943;-68
2023/08/03 05:53:11;;;;;;;12.48;5.28;;;23.40;99.90;;;;;;6224623;28;90296;-68
2023/08/03 05:56:13;;;;;;;15.95;6.80;;;23.40;99.90;;;;;;6231154;28;88235;-68
2023/08/03 05:59:20;;;;;;;14.02;5.97;;;23.40;99.90;;;;;;6228483;28;89795;-68
2023/08/03 06:02:33;;;;;;;14.98;6.03;;;23.40;99.90;;;;;;6231177;28;88957;-68
2023/08/03 06:05:43;;;;;;;14.43;5.85;;;23.40;99.90;;;;;;6229387;28;90557;-68
2023/08/03 06:08:48;;;;;;;9.77;4.65;;;23.40;99.90;;;;;;6219720;28;88973;-68
2023/08/03 06:11:53;;;;;;;10.05;4.47;;;23.40;99.90;;;;;;6230726;28;89058;-68
2023/08/03 06:14:55;;;;;;;9.55;4.40;;;23.40;99.90;;;;;;6229985;28;88140;-68
2023/08/03 06:18:03;;;;;;;7.63;4.00;;;23.40;99.90;;;;;;6229834;28;89068;-68
2023/08/03 06:21:05;;;;;;;7.68;4.13;;;23.40;99.90;;;;;;6212727;28;88082;-68
2023/08/03 06:24:07;;;;;;;9.38;3.97;;;23.40;99.90;;;;;;6230472;28;89133;-68
2023/08/03 06:27:12;;;;;;;7.57;4.10;;;23.40;99.90;;;;;;6229698;28;88283;-69
2023/08/03 06:30:15;;;;;;;6.78;3.65;;;23.40;99.90;;;;;;6229727;28;89127;-68
2023/08/03 06:33:21;;;;;;;6.85;3.65;;;23.40;99.90;;;;;;6229217;28;89179;-68
2023/08/03 06:36:26;;;;;;;7.65;3.60;;;23.40;99.90;;;;;;6236887;28;90089;-68
2023/08/03 06:39:28;;;;;;;9.68;4.38;;;23.40;99.90;;;;;;6229370;28;89132;-68
2023/08/03 06:42:30;;;;;;;7.38;3.65;;;23.40;99.90;;;;;;6229887;28;87978;-68
2023/08/03 06:45:33;;;;;;;5.75;3.25;;;23.40;99.90;;;;;;6229281;28;87763;-68
2023/08/03 06:48:37;;;;;;;7.32;3.55;;;23.40;99.90;;;;;;6228805;28;89028;-68
2023/08/03 06:51:39;;;;;;;7.15;3.92;;;23.50;99.90;;;;;;6231267;28;89046;-68
2023/08/03 06:54:42;;;;;;;6.32;3.38;;;23.40;99.90;;;;;;6218803;28;89261;-68
2023/08/03 06:57:44;;;;;;;5.55;3.35;;;23.40;99.90;;;;;;6229073;28;88355;-68
2023/08/03 07:00:46;;;;;;;6.07;3.35;;;23.40;99.90;;;;;;6229195;28;89079;-68
2023/08/03 07:03:49;;;;;;;5.35;3.35;;;23.40;99.90;;;;;;6240056;28;89007;-68
2023/08/03 07:06:51;;;;;;;7.65;3.75;;;23.50;99.90;;;;;;6225609;28;90053;-68
2023/08/03 07:09:53;;;;;;;7.35;3.55;;;23.40;99.90;;;;;;6230691;28;89090;-68
2023/08/03 07:12:55;;;;;;;8.07;3.83;;;23.40;99.90;;;;;;6226421;28;89883;-68
2023/08/03 07:16:05;;;;;;;5.63;3.10;;;23.40;99.90;;;;;;6227734;28;89254;-68
2023/08/03 07:19:12;;;;;;;5.00;2.90;;;23.50;99.90;;;;;;6222411;28;89076;-68
2023/08/03 07:22:14;;;;;;;5.25;3.10;;;23.50;99.90;;;;;;6220762;28;89328;-68
2023/08/03 07:25:16;;;;;;;5.45;3.00;;;23.40;99.90;;;;;;6233523;28;89136;-68
2023/08/03 07:28:18;;;;;;;5.60;3.00;;;23.40;99.90;;;;;;6233796;28;86635;-68
2023/08/03 07:31:20;;;;;;;5.50;3.03;;;23.40;99.90;;;;;;6238982;27;89064;-68
2023/08/03 07:34:23;;;;;;;5.38;2.92;;;23.40;99.90;;;;;;6240359;28;89389;-68
2023/08/03 07:37:25;;;;;;;5.53;3.22;;;23.40;99.90;;;;;;6238602;27;89995;-68
2023/08/03 07:40:27;;;;;;;8.02;3.70;;;23.40;99.90;;;;;;6232757;28;89463;-68
2023/08/03 07:43:29;;;;;;;8.30;4.05;;;23.40;99.90;;;;;;6234177;28;88990;-68
2023/08/03 07:46:31;;;;;;;5.53;3.38;;;23.40;99.90;;;;;;6233433;28;89051;-68
2023/08/03 07:49:35;;;;;;;4.55;2.85;;;23.40;99.90;;;;;;6233710;28;88742;-69
2023/08/03 07:52:37;;;;;;;6.55;3.28;;;23.40;99.90;;;;;;6233400;28;89077;-68
2023/08/03 07:55:39;;;;;;;3.80;2.70;;;23.40;99.90;;;;;;6232186;28;89183;-68
2023/08/03 07:58:41;;;;;;;5.45;2.80;;;23.40;99.90;;;;;;6232288;28;88385;-68
2023/08/03 08:01:43;;;;;;;5.00;2.70;;;23.40;99.90;;;;;;6235965;28;89486;-68
2023/08/03 08:04:50;;;;;;;7.03;3.22;;;23.40;99.90;;;;;;6243802;28;89008;-68
2023/08/03 08:07:55;;;;;;;8.43;4.00;;;23.40;99.90;;;;;;6221858;28;89938;-68
2023/08/03 08:10:57;;;;;;;6.75;3.00;;;23.40;99.90;;;;;;6246212;27;89333;-68
2023/08/03 08:13:59;;;;;;;5.65;2.95;;;23.40;99.90;;;;;;6238806;28;89032;-68
2023/08/03 08:17:02;;;;;;;5.55;2.92;;;23.40;99.90;;;;;;6231951;28;89063;-68
2023/08/03 08:20:06;;;;;;;4.78;2.70;;;23.40;99.90;;;;;;6220485;28;89090;-68
2023/08/03 08:23:08;;;;;;;4.18;2.60;;;23.40;99.90;;;;;;6220564;28;89038;-68
2023/08/03 08:26:12;;;;;;;4.35;2.55;;;23.40;99.90;;;;;;6233747;28;89129;-68
2023/08/03 08:29:13;;;;;;;4.22;2.75;;;23.40;99.90;;;;;;6232867;28;88192;-68
2023/08/03 08:32:15;;;;;;;5.40;2.85;;;23.40;99.90;;;;;;6232477;28;87950;-68
2023/08/03 08:35:19;;;;;;;3.95;2.40;;;23.40;99.90;;;;;;6231196;28;89356;-68
2023/08/03 08:38:21;;;;;;;4.07;2.40;;;23.40;99.90;;;;;;6232200;28;89976;-68
2023/08/03 08:41:23;;;;;;;6.55;2.65;;;23.40;99.90;;;;;;6232679;28;89065;-68
2023/08/03 08:44:25;;;;;;;4.40;2.78;;;23.40;99.90;;;;;;6230957;28;89120;-68
2023/08/03 08:47:27;;;;;;;6.57;2.85;;;23.40;99.90;;;;;;6229909;28;89245;-68
2023/08/03 08:50:30;;;;;;;4.95;2.75;;;23.40;99.90;;;;;;6221527;28;89513;-68
2023/08/03 08:53:32;;;;;;;2.97;2.25;;;23.40;99.90;;;;;;6233134;28;88767;-68
2023/08/03 08:56:34;;;;;;;4.60;2.15;;;23.40;99.90;;;;;;6232280;27;89368;-68
2023/08/03 08:59:36;;;;;;;2.90;2.00;;;23.40;99.90;;;;;;6224569;28;88980;-68
2023/08/03 09:02:38;;;;;;;6.13;2.80;;;23.40;99.90;;;;;;6239612;28;89143;-68
2023/08/03 09:05:42;;;;;;;4.57;2.40;;;23.40;99.90;;;;;;6236342;28;88625;-68
2023/08/03 09:08:55;;;;;;;5.15;2.47;;;23.40;99.90;;;;;;6233906;27;90001;-68
2023/08/03 09:11:57;;;;;;;4.97;2.78;;;23.40;99.90;;;;;;6232634;28;89122;-68
2023/08/03 09:14:59;;;;;;;5.68;2.58;;;23.40;99.90;;;;;;6231299;28;89085;-68
2023/08/03 09:18:05;;;;;;;3.65;2.13;;;23.40;99.90;;;;;;6231856;28;89062;-68
2023/08/03 09:21:12;;;;;;;3.10;2.10;;;23.30;99.90;;;;;;6242197;28;88999;-69
2023/08/03 09:24:18;;;;;;;3.92;2.30;;;23.40;99.90;;;;;;6233651;28;89415;-68
2023/08/03 09:27:20;;;;;;;3.25;2.20;;;23.40;99.90;;;;;;6227593;28;88790;-69
2023/08/03 09:30:24;;;;;;;3.13;2.00;;;23.40;99.90;;;;;;6231476;28;88238;-68
2023/08/03 09:33:26;;;;;;;4.25;2.25;;;23.40;99.90;;;;;;6233652;28;89219;-68
2023/08/03 09:36:30;;;;;;;4.38;2.58;;;23.40;99.90;;;;;;6239544;27;89138;-68
2023/08/03 09:39:34;;;;;;;3.35;2.22;;;23.40;99.90;;;;;;6233975;27;88931;-68
2023/08/03 09:42:37;;;;;;;4.03;2.30;;;23.40;99.90;;;;;;6230402;28;90491;-68
2023/08/03 09:45:40;;;;;;;3.85;2.17;;;23.40;99.90;;;;;;6232600;28;89433;-68
2023/08/03 09:48:44;;;;;;;4.18;2.33;;;23.40;99.90;;;;;;6232433;28;89100;-68
2023/08/03 09:51:51;;;;;;;4.60;2.30;;;23.40;99.90;;;;;;6219586;28;89757;-68
2023/08/03 09:54:59;;;;;;;4.72;2.40;;;23.40;99.90;;;;;;6232659;28;88982;-68
2023/08/03 09:58:04;;;;;;;4.50;2.15;;;23.30;99.90;;;;;;6230217;28;89460;-68
2023/08/03 10:01:09;;;;;;;5.82;2.45;;;23.40;99.90;;;;;;6230613;28;88421;-68
2023/08/03 10:04:15;;;;;;;4.68;2.10;;;23.40;99.90;;;;;;6233268;28;89060;-68
2023/08/03 10:07:23;;;;;;;4.78;2.28;;;23.40;99.90;;;;;;6228693;28;90771;-68
2023/08/03 10:10:28;;;;;;;2.88;1.80;;;23.40;99.90;;;;;;6229161;28;90158;-67
2023/08/03 10:13:33;;;;;;;2.78;1.80;;;23.40;99.90;;;;;;6229476;28;90351;-67
2023/08/03 10:16:37;;;;;;;3.45;1.70;;;23.40;99.90;;;;;;6229555;28;89563;-68
2023/08/03 10:19:40;;;;;;;3.80;2.00;;;23.40;99.90;;;;;;6227431;28;89320;-68
2023/08/03 10:23:14;;;;;;;5.88;1.90;;;23.40;99.90;;;;;;6229805;28;89005;-68
2023/08/03 10:26:22;;;;;;;3.55;1.70;;;23.40;99.90;;;;;;6232396;28;89588;-67
2023/08/03 10:29:55;;;;;;;4.20;1.80;;;23.40;99.90;;;;;;6225669;28;88961;-68
2023/08/03 10:32:57;;;;;;;5.78;2.40;;;23.40;99.90;;;;;;6219944;28;88264;-68
2023/08/03 10:35:59;;;;;;;4.60;2.17;;;23.40;99.90;;;;;;6237470;28;89456;-68
2023/08/03 10:39:03;;;;;;;4.32;2.13;;;23.40;99.90;;;;;;6230911;28;89514;-67
2023/08/03 10:42:21;;;;;;;5.50;2.33;;;23.40;99.90;;;;;;6237821;28;89939;-69
2023/08/03 10:45:28;;;;;;;5.72;2.17;;;23.40;99.90;;;;;;6231782;27;89018;-68
2023/08/03 10:48:33;;;;;;;6.72;2.50;;;23.40;99.90;;;;;;6230023;27;89142;-69
2023/08/03 10:51:35;;;;;;;6.78;2.22;;;23.40;99.90;;;;;;6221989;28;88903;-68
2023/08/03 10:54:37;;;;;;;7.72;2.22;;;23.40;99.90;;;;;;6226022;28;88971;-68
2023/08/03 10:57:44;;;;;;;5.03;1.95;;;23.40;99.90;;;;;;6227263;28;89450;-68
2023/08/03 11:00:46;;;;;;;3.17;1.85;;;23.40;99.90;;;;;;6240867;28;89352;-68
2023/08/03 11:03:48;;;;;;;5.85;2.38;;;23.40;99.90;;;;;;6238795;27;87156;-68
2023/08/03 11:06:51;;;;;;;4.88;2.20;;;23.40;99.90;;;;;;6236002;27;89367;-68
2023/08/03 11:09:53;;;;;;;6.35;2.40;;;23.40;99.90;;;;;;6243278;27;89049;-68
2023/08/03 11:12:57;;;;;;;5.45;2.47;;;23.40;99.90;;;;;;6241222;27;89997;-68
2023/08/03 11:15:59;;;;;;;5.80;2.35;;;23.40;99.90;;;;;;6244118;28;89172;-68
2023/08/03 11:19:01;;;;;;;4.78;1.98;;;23.40;99.90;;;;;;6230175;28;90187;-68
2023/08/03 11:22:03;;;;;;;5.72;2.00;;;23.40;99.90;;;;;;6225494;28;87877;-69
2023/08/03 11:25:07;;;;;;;3.53;1.80;;;23.40;99.90;;;;;;6230613;28;88093;-68
2023/08/03 11:28:18;;;;;;;4.55;2.22;;;23.40;99.90;;;;;;6221580;28;89114;-68
2023/08/03 11:31:21;;;;;;;5.97;2.63;;;23.40;99.90;;;;;;6233679;28;88937;-68
2023/08/03 11:34:24;;;;;;;3.72;1.70;;;23.40;99.90;;;;;;6245569;27;88352;-68
2023/08/03 11:37:30;;;;;;;5.65;1.90;;;23.40;99.90;;;;;;6234769;28;88967;-68
2023/08/03 11:40:32;;;;;;;3.90;1.80;;;23.40;99.90;;;;;;6240206;28;89107;-68
2023/08/03 11:43:35;;;;;;;5.03;2.20;;;23.40;99.90;;;;;;6241606;28;90307;-69
2023/08/03 11:46:37;;;;;;;6.35;2.42;;;23.40;99.90;;;;;;6236764;27;88891;-69
2023/08/03 11:49:39;;;;;;;5.05;1.80;;;23.40;99.90;;;;;;6239502;27;88998;-68
2023/08/03 11:52:41;;;;;;;2.97;1.83;;;23.40;99.90;;;;;;6232808;28;89065;-68
2023/08/03 11:55:45;;;;;;;3.03;1.65;;;23.40;99.90;;;;;;6239018;28;89014;-68
2023/08/03 11:58:49;;;;;;;4.45;1.85;;;23.40;99.90;;;;;;6233040;28;89189;-68
2023/08/03 12:01:52;;;;;;;3.55;1.70;;;23.40;99.90;;;;;;6232968;28;89070;-68
2023/08/03 12:04:54;;;;;;;3.58;1.70;;;23.40;99.90;;;;;;6230037;28;88795;-68
2023/08/03 12:07:57;;;;;;;4.18;1.83;;;23.40;99.90;;;;;;6232562;28;89218;-68
2023/08/03 12:11:00;;;;;;;3.72;1.90;;;23.40;99.90;;;;;;6230197;28;88958;-68
2023/08/03 12:14:04;;;;;;;8.50;2.97;;;23.40;99.90;;;;;;6231262;28;91039;-67
2023/08/03 12:17:12;;;;;;;5.10;2.15;;;23.40;99.90;;;;;;6237324;27;89140;-67
2023/08/03 12:20:14;;;;;;;5.47;2.38;;;23.40;99.90;;;;;;6231082;28;89674;-67
2023/08/03 12:23:16;;;;;;;6.25;2.42;;;23.40;99.90;;;;;;6232311;28;88091;-68
2023/08/03 12:26:18;;;;;;;3.15;1.52;;;23.40;99.90;;;;;;6232265;28;89191;-68
2023/08/03 12:29:22;;;;;;;3.40;1.50;;;23.40;99.90;;;;;;6248596;28;90995;-68
2023/08/03 12:32:24;;;;;;;4.25;1.80;;;23.40;99.90;;;;;;6248172;27;88943;-68
2023/08/03 12:35:27;;;;;;;4.50;1.98;;;23.40;99.90;;;;;;6229446;28;88392;-68
2023/08/03 12:38:29;;;;;;;3.15;1.73;;;23.40;99.90;;;;;;6214000;28;89213;-68
2023/08/03 12:41:31;;;;;;;3.70;1.90;;;23.40;99.90;;;;;;6238598;28;89139;-68
2023/08/03 12:44:34;;;;;;;5.20;2.00;;;23.40;99.90;;;;;;6238496;27;90055;-68
2023/08/03 12:47:37;;;;;;;4.32;1.80;;;23.40;99.90;;;;;;6234501;27;89046;-68
2023/08/03 12:50:38;;;;;;;5.10;2.15;;;23.40;99.90;;;;;;6232345;28;89576;-68
2023/08/03 12:53:40;;;;;;;2.75;1.45;;;23.40;99.90;;;;;;6240024;28;89047;-68
2023/08/03 12:56:42;;;;;;;12.63;4.30;;;23.40;99.90;;;;;;6231389;28;89051;-68
2023/08/03 12:59:46;;;;;;;15.88;4.43;;;23.40;99.90;;;;;;6231374;28;89140;-68
2023/08/03 13:02:48;;;;;;;10.98;3.78;;;23.40;99.90;;;;;;6232470;28;88967;-68
2023/08/03 13:05:50;;;;;;;9.82;3.30;;;23.40;99.90;;;;;;6237060;27;88924;-68
2023/08/03 13:08:52;;;;;;;12.50;3.85;;;23.40;99.90;;;;;;6235353;28;88965;-68
2023/08/03 13:11:54;;;;;;;12.75;4.10;;;23.40;99.90;;;;;;6242008;28;89040;-68
2023/08/03 13:14:57;;;;;;;9.10;3.25;;;23.40;99.90;;;;;;6237416;28;90380;-68
2023/08/03 13:17:59;;;;;;;10.30;3.30;;;23.40;99.90;;;;;;6236098;28;88319;-67
2023/08/03 13:21:01;;;;;;;8.45;2.72;;;23.40;99.90;;;;;;6222848;28;89162;-68
2023/08/03 13:24:03;;;;;;;6.75;3.00;;;23.40;99.90;;;;;;6227396;28;89060;-68
2023/08/03 13:27:15;;;;;;;7.20;2.60;;;23.40;99.90;;;;;;6234243;28;87917;-68
2023/08/03 13:30:20;;;;;;;8.93;3.03;;;23.40;99.90;;;;;;6240423;27;89457;-68
2023/08/03 13:33:22;;;;;;;6.25;2.80;;;23.40;99.90;;;;;;6231663;28;89096;-68
2023/08/03 13:36:23;;;;;;;5.82;2.70;;;23.40;99.90;;;;;;6238626;28;88580;-68
2023/08/03 13:39:25;;;;;;;9.18;3.25;;;23.40;99.90;;;;;;6234857;27;89128;-68
2023/08/03 13:42:27;;;;;;;7.75;2.90;;;23.40;99.90;;;;;;6229413;28;89021;-68
2023/08/03 13:45:31;;;;;;;6.85;2.80;;;23.40;99.90;;;;;;6222477;28;88885;-68
2023/08/03 13:48:33;;;;;;;6.95;2.83;;;23.40;99.90;;;;;;6220883;28;88248;-68
2023/08/03 13:51:35;;;;;;;5.63;2.53;;;23.40;99.90;;;;;;6228705;28;89051;-68
2023/08/03 13:54:37;;;;;;;5.30;2.42;;;23.40;99.90;;;;;;6235457;28;88959;-68
2023/08/03 13:57:39;;;;;;;6.60;2.78;;;23.40;99.90;;;;;;6232922;28;89044;-68
2023/08/03 14:00:42;;;;;;;4.68;2.38;;;23.40;99.90;;;;;;6230959;28;88985;-68
2023/08/03 14:03:45;;;;;;;6.68;2.67;;;23.40;99.90;;;;;;6231048;28;88994;-68
2023/08/03 14:06:47;;;;;;;7.40;2.70;;;23.40;99.90;;;;;;6229382;28;87157;-68
2023/08/03 14:09:49;;;;;;;4.65;2.25;;;23.40;99.90;;;;;;6227620;28;89254;-68
2023/08/03 14:12:52;;;;;;;5.50;2.50;;;23.40;99.90;;;;;;6229592;28;89076;-69
2023/08/03 14:15:55;;;;;;;9.10;3.03;;;23.40;99.90;;;;;;6223979;28;90275;-72
2023/08/03 14:18:57;;;;;;;16.48;4.53;;;23.40;99.90;;;;;;6238665;27;87946;-68
2023/08/03 14:21:59;;;;;;;7.50;3.10;;;23.50;99.90;;;;;;6229761;28;88928;-68
2023/08/03 14:25:01;;;;;;;11.27;3.60;;;23.60;99.90;;;;;;6229764;28;89041;-68
2023/08/03 14:28:03;;;;;;;12.98;4.82;;;23.60;99.90;;;;;;6231681;28;88891;-68
2023/08/03 14:31:07;;;;;;;10.23;4.10;;;23.60;99.90;;;;;;6235424;28;88945;-67
2023/08/03 14:34:09;;;;;;;8.82;2.88;;;23.80;99.90;;;;;;6232814;27;88889;-67
2023/08/03 14:37:12;;;;;;;9.70;3.67;;;23.90;99.90;;;;;;6231052;28;88786;-68
2023/08/03 14:40:14;;;;;;;6.53;2.88;;;23.90;99.90;;;;;;6229745;28;89016;-68
2023/08/03 14:43:16;;;;;;;7.43;2.95;;;24.10;99.90;;;;;;6230619;28;88998;-68
2023/08/03 14:46:19;;;;;;;6.22;2.63;;;24.30;99.90;;;;;;6227790;28;90073;-68
2023/08/03 14:49:22;;;;;;;7.45;2.25;;;24.50;99.90;;;;;;6220542;28;89037;-68
2023/08/03 14:52:24;;;;;;;5.80;2.72;;;24.50;99.90;;;;;;6234098;28;88262;-68
2023/08/03 14:55:26;;;;;;;4.32;2.55;;;24.50;99.90;;;;;;6232463;28;88093;-68
2023/08/03 14:58:29;;;;;;;4.32;2.13;;;24.50;99.90;;;;;;6244600;27;88989;-68
2023/08/03 15:01:32;;;;;;;8.68;3.22;;;24.60;99.90;;;;;;6247887;27;89027;-68
2023/08/03 15:04:36;;;;;;;6.05;2.17;;;24.60;99.90;;;;;;6247841;28;89405;-68
2023/08/03 15:07:38;;;;;;;5.65;2.30;;;24.60;99.90;;;;;;6230548;28;88387;-68
2023/08/03 15:10:40;;;;;;;5.78;2.22;;;24.60;99.90;;;;;;6235436;28;88976;-68
2023/08/03 15:13:42;;;;;;;4.30;2.15;;;24.60;99.90;;;;;;6230448;27;88702;-68
2023/08/03 15:16:47;;;;;;;5.13;2.15;;;24.50;99.90;;;;;;6240936;28;89987;-68
2023/08/03 15:19:49;;;;;;;4.78;2.05;;;24.50;99.90;;;;;;6229511;27;88988;-68
2023/08/03 15:22:51;;;;;;;4.07;2.05;;;24.40;99.90;;;;;;6231049;28;87944;-68
2023/08/03 15:25:57;;;;;;;3.53;2.20;;;24.40;99.90;;;;;;6216037;28;88986;-67
2023/08/03 15:28:59;;;;;;;4.47;2.10;;;24.30;99.90;;;;;;6242571;28;89123;-67
2023/08/03 15:32:03;;;;;;;3.72;1.90;;;24.30;99.90;;;;;;6248682;28;88941;-67
2023/08/03 15:35:06;;;;;;;4.05;2.28;;;24.20;99.90;;;;;;6227183;27;89151;-68
2023/08/03 15:38:09;;;;;;;3.95;1.90;;;24.20;99.90;;;;;;6233378;27;88597;-67
2023/08/03 15:41:11;;;;;;;4.38;2.03;;;24.10;99.90;;;;;;6225622;28;89115;-68
2023/08/03 15:44:13;;;;;;;4.95;2.10;;;24.10;99.90;;;;;;6229376;28;89008;-68
2023/08/03 15:47:16;;;;;;;5.00;2.10;;;24.00;99.90;;;;;;6227701;28;90301;-67
2023/08/03 15:50:21;;;;;;;2.97;1.67;;;24.00;99.90;;;;;;6224340;28;89089;-68
2023/08/03 15:53:25;;;;;;;6.05;2.55;;;24.00;99.90;;;;;;6220053;28;87513;-68
2023/08/03 15:56:28;;;;;;;4.95;2.45;;;24.00;99.90;;;;;;6233344;28;88981;-68
2023/08/03 15:59:32;;;;;;;3.50;1.90;;;24.00;99.90;;;;;;6233787;28;89209;-67
2023/08/03 16:02:35;;;;;;;3.47;1.80;;;23.90;99.90;;;;;;6231188;28;88101;-67
2023/08/03 16:05:37;;;;;;;2.85;1.90;;;23.90;99.90;;;;;;6223020;28;89095;-68
2023/08/03 16:08:40;;;;;;;3.92;2.10;;;23.90;99.90;;;;;;6228507;28;88501;-68
2023/08/03 16:11:43;;;;;;;3.42;1.80;;;23.90;99.90;;;;;;6232839;28;89131;-68
2023/08/03 16:14:46;;;;;;;3.95;1.88;;;23.90;99.90;;;;;;6232546;28;89227;-67
2023/08/03 16:17:49;;;;;;;3.40;1.88;;;23.90;99.90;;;;;;6231729;28;90269;-68
2023/08/03 16:20:52;;;;;;;3.28;1.73;;;23.80;99.90;;;;;;6231486;28;88881;-68
2023/08/03 16:23:54;;;;;;;3.70;1.73;;;23.80;99.90;;;;;;6233009;28;89024;-67
2023/08/03 16:26:57;;;;;;;4.32;1.70;;;23.80;99.90;;;;;;6231935;28;87698;-68
2023/08/03 16:30:00;;;;;;;3.33;1.73;;;23.80;99.90;;;;;;6219805;28;87046;-68
2023/08/03 16:33:04;;;;;;;9.02;3.28;;;23.80;99.90;;;;;;6231689;28;88619;-68
2023/08/03 16:36:14;;;;;;;4.32;1.85;;;23.80;99.90;;;;;;6232600;28;88088;-68
2023/08/03 16:39:17;;;;;;;4.55;2.00;;;23.80;99.90;;;;;;6232009;28;87321;-67
2023/08/03 16:42:20;;;;;;;3.97;1.70;;;23.80;99.90;;;;;;6231158;28;88357;-68
2023/08/03 16:45:23;;;;;;;5.50;2.50;;;23.80;99.90;;;;;;6230980;28;88330;-68
2023/08/03 16:48:28;;;;;;;6.90;2.70;;;23.80;99.90;;;;;;6232116;28;90343;-68
2023/08/03 16:51:31;;;;;;;6.72;2.80;;;23.80;99.90;;;;;;6231064;28;88406;-68
2023/08/03 16:54:34;;;;;;;2.35;1.52;;;23.70;99.90;;;;;;6220330;28;87788;-68
2023/08/03 16:57:37;;;;;;;2.92;1.80;;;23.70;99.90;;;;;;6230917;28;87284;-68
2023/08/03 17:00:40;;;;;;;3.78;1.80;;;23.80;99.90;;;;;;6231556;28;86937;-68
2023/08/03 17:03:45;;;;;;;2.80;1.70;;;23.70;99.90;;;;;;6231979;28;88354;-68
2023/08/03 17:06:48;;;;;;;2.90;1.90;;;23.70;99.90;;;;;;6230686;28;87981;-67
2023/08/03 17:09:51;;;;;;;3.55;1.92;;;23.70;99.90;;;;;;6232569;28;87270;-67
2023/08/03 17:12:54;;;;;;;4.55;2.20;;;23.70;99.90;;;;;;6229941;28;87940;-67
2023/08/03 17:15:57;;;;;;;5.50;2.50;;;23.70;99.90;;;;;;6219052;28;87982;-68
2023/08/03 17:19:02;;;;;;;6.75;2.90;;;23.70;99.90;;;;;;6230092;28;88867;-68
2023/08/03 17:22:05;;;;;;;3.47;1.92;;;23.70;99.90;;;;;;6231608;28;88000;-68
2023/08/03 17:25:09;;;;;;;3.83;2.08;;;23.70;99.90;;;;;;6231468;28;89496;-67
2023/08/03 17:28:13;;;;;;;5.25;2.50;;;23.70;99.90;;;;;;6231476;28;89645;-68
2023/08/03 17:31:17;;;;;;;5.35;2.10;;;23.70;99.90;;;;;;6244118;28;87963;-67
2023/08/03 17:34:24;;;;;;;1.90;1.63;;;23.60;99.90;;;;;;6231529;28;88011;-67
2023/08/03 17:37:28;;;;;;;3.25;2.00;;;23.60;99.90;;;;;;6228785;28;87096;-67
2023/08/03 17:40:31;;;;;;;4.70;2.17;;;23.70;99.90;;;;;;6237529;28;87262;-67
2023/08/03 17:43:35;;;;;;;3.55;1.98;;;23.70;99.90;;;;;;6223622;28;87090;-68
2023/08/03 17:46:39;;;;;;;6.00;2.30;;;23.70;99.90;;;;;;6236087;28;87839;-67
2023/08/03 17:49:44;;;;;;;4.80;2.10;;;23.70;99.90;;;;;;6236387;27;89248;-68
2023/08/03 17:52:50;;;;;;;3.60;1.75;;;23.70;99.90;;;;;;6227193;28;87951;-66
2023/08/03 17:55:53;;;;;;;3.85;2.20;;;23.70;99.90;;;;;;6227599;28;88570;-67
2023/08/03 17:58:57;;;;;;;4.45;2.00;;;23.70;99.90;;;;;;6239734;28;87677;-67
2023/08/03 18:02:01;;;;;;;5.03;1.92;;;23.80;99.90;;;;;;6224359;27;87904;-67
2023/08/03 18:05:07;;;;;;;3.58;1.90;;;23.80;99.90;;;;;;6223632;28;88013;-69
2023/08/03 18:08:11;;;;;;;4.40;1.90;;;23.90;99.90;;;;;;6227922;28;87900;-67
2023/08/03 18:11:16;;;;;;;4.55;1.90;;;23.80;99.90;;;;;;6227292;28;86248;-67
2023/08/03 18:14:20;;;;;;;4.53;2.20;;;23.80;99.90;;;;;;6231163;28;88045;-66
2023/08/03 18:17:24;;;;;;;5.30;1.95;;;23.80;99.90;;;;;;6231760;28;87806;-66
2023/08/03 18:20:29;;;;;;;3.80;1.73;;;23.80;99.90;;;;;;6224043;28;88028;-67
2023/08/03 18:23:33;;;;;;;3.88;1.73;;;23.80;99.90;;;;;;6228484;28;89729;-67
2023/08/03 18:26:37;;;;;;;7.38;2.47;;;23.80;99.90;;;;;;6242849;28;87748;-67
2023/08/03 18:29:40;;;;;;;5.53;2.28;;;23.80;99.90;;;;;;6238390;27;87885;-67
2023/08/03 18:32:45;;;;;;;6.38;2.13;;;23.80;99.90;;;;;;6234865;28;87226;-68
2023/08/03 18:35:50;;;;;;;3.95;2.00;;;23.80;99.90;;;;;;6229541;28;88019;-67
2023/08/03 18:38:54;;;;;;;4.15;1.95;;;23.80;99.90;;;;;;6222634;28;88110;-66
2023/08/03 18:41:58;;;;;;;6.70;2.75;;;23.80;99.90;;;;;;6222425;28;87246;-66
2023/08/03 18:45:02;;;;;;;5.38;2.30;;;23.70;99.90;;;;;;6234140;28;87654;-66
2023/08/03 18:48:06;;;;;;;5.88;2.08;;;23.70;99.90;;;;;;6221330;27;88037;-66
2023/08/03 18:51:13;;;;;;;4.65;1.92;;;23.70;99.90;;;;;;6213220;28;89154;-66
2023/08/03 18:54:17;;;;;;;3.28;1.70;;;23.70;99.90;;;;;;6221372;28;88097;-65
2023/08/03 18:57:21;;;;;;;3.83;1.80;;;23.70;99.90;;;;;;6218804;28;87803;-65
2023/08/03 19:00:24;;;;;;;4.07;1.90;;;23.70;99.90;;;;;;6218564;28;88003;-65
2023/08/03 19:03:28;;;;;;;3.65;1.83;;;23.70;99.90;;;;;;6224763;28;88850;-68
2023/08/03 19:06:34;;;;;;;3.95;1.75;;;23.70;99.90;;;;;;6235900;28;88810;-68
2023/08/03 19:09:37;;;;;;;5.65;2.22;;;23.70;99.90;;;;;;6227412;28;88111;-68
2023/08/03 19:12:41;;;;;;;3.70;1.83;;;23.70;99.90;;;;;;6233821;27;88013;-66
2023/08/03 19:15:45;;;;;;;5.18;1.90;;;23.70;99.90;;;;;;6216013;28;88001;-67
2023/08/03 19:18:49;;;;;;;7.88;2.92;;;23.70;99.90;;;;;;6224906;28;88192;-66
2023/08/03 19:21:56;;;;;;;3.53;1.83;;;23.70;99.90;;;;;;6219091;28;90672;-67
2023/08/03 19:25:00;;;;;;;3.70;1.70;;;23.70;99.80;;;;;;6231434;28;87964;-66
2023/08/03 19:28:04;;;;;;;5.05;1.98;;;23.70;99.70;;;;;;6230463;28;87859;-66
2023/08/03 19:31:07;;;;;;;3.25;1.80;;;23.70;99.60;;;;;;6229926;28;87158;-65
2023/08/03 19:34:12;;;;;;;3.67;2.00;;;23.70;99.70;;;;;;6231057;28;87816;-66
2023/08/03 19:37:17;;;;;;;2.63;1.70;;;23.70;99.90;;;;;;6234906;28;88103;-66
2023/08/03 19:40:21;;;;;;;4.00;1.98;;;23.70;99.90;;;;;;6236683;28;88092;-66
2023/08/03 19:43:25;;;;;;;5.53;2.25;;;23.60;99.90;;;;;;6218637;28;87317;-66
2023/08/03 19:46:28;;;;;;;3.75;1.95;;;23.70;99.90;;;;;;6237373;28;87959;-66
2023/08/03 19:49:32;;;;;;;3.20;1.88;;;23.60;99.90;;;;;;6228494;28;88288;-66
2023/08/03 19:52:38;;;;;;;4.07;2.00;;;23.60;99.90;;;;;;6230148;28;88760;-66